Time;durP1;ratioP1;P1;durP2;ratioP2;P2;SDS_P1;SDS_P2;PMS_P1;PMS_P2;Temp;Humidity;BMP_temperature;BMP_pressure;BME280_temperature;BME280_humidity;BME280_pressure;Samples;Min_cycle;Max_cycle;Signal;HPM_P1;HPM_P2
2023/04/11 00:00:13;;;;;;;5.90;5.30;;;;;;;8.94;100.00;100430.59;5009250;28;20189;-52
2023/04/11 00:02:38;;;;;;;5.50;5.00;;;;;;;8.96;100.00;100421.56;5008910;28;20176;-50
2023/04/11 00:05:05;;;;;;;5.82;5.25;;;;;;;8.97;100.00;100422.47;5009144;28;20176;-49
2023/04/11 00:07:31;;;;;;;5.07;4.68;;;;;;;8.94;100.00;100425.25;5003384;28;20722;-51
2023/04/11 00:09:57;;;;;;;4.78;4.38;;;;;;;8.94;100.00;100430.59;5009439;28;20180;-49
2023/04/11 00:12:22;;;;;;;5.20;4.70;;;;;;;8.91;100.00;100412.88;5008484;28;20184;-47
2023/04/11 00:14:48;;;;;;;5.30;4.53;;;;;;;8.92;100.00;100411.97;5009108;28;20643;-49
2023/04/11 00:17:17;;;;;;;6.80;4.90;;;;;;;8.87;100.00;100401.41;5012307;28;20192;-49
2023/04/11 00:19:44;;;;;;;5.38;4.88;;;;;;;8.83;100.00;100399.81;5008699;28;20193;-49
2023/04/11 00:22:16;;;;;;;5.55;4.97;;;;;;;8.81;100.00;100401.69;5003313;28;20184;-50
2023/04/11 00:24:42;;;;;;;6.70;4.82;;;;;;;8.82;100.00;100410.56;5009235;28;20189;-49
2023/04/11 00:27:08;;;;;;;6.00;5.47;;;;;;;8.79;100.00;100405.31;5005281;28;20239;-49
2023/04/11 00:29:35;;;;;;;5.70;5.20;;;;;;;8.75;100.00;100393.91;5009452;28;20180;-50
2023/04/11 00:32:02;;;;;;;5.75;5.00;;;;;;;8.77;100.00;100389.38;5011843;28;20184;-47
2023/04/11 00:34:28;;;;;;;5.80;5.00;;;;;;;8.84;100.00;100393.53;5010302;28;20623;-48
2023/04/11 00:36:53;;;;;;;6.47;4.55;;;;;;;8.85;100.00;100399.75;5009117;28;20264;-49
2023/04/11 00:39:25;;;;;;;5.60;4.68;;;;;;;8.84;100.00;100388.19;4995068;28;20224;-51
2023/04/11 00:41:51;;;;;;;5.78;5.10;;;;;;;8.85;100.00;100395.28;5018680;28;20181;-48
2023/04/11 00:44:17;;;;;;;5.35;4.85;;;;;;;8.77;100.00;100380.50;5009006;28;20261;-49
2023/04/11 00:46:45;;;;;;;4.88;4.47;;;;;;;8.68;100.00;100375.47;5013764;28;20264;-50
2023/04/11 00:49:10;;;;;;;6.20;5.10;;;;;;;8.70;100.00;100378.97;5012582;28;20268;-50
2023/04/11 00:51:36;;;;;;;5.88;5.35;;;;;;;8.65;100.00;100373.78;5006884;28;20184;-50
2023/04/11 00:54:02;;;;;;;5.30;4.80;;;;;;;8.66;100.00;100365.72;5007387;28;20200;-48
2023/04/11 00:56:28;;;;;;;5.63;5.03;;;;;;;8.65;100.00;100361.31;5012293;28;20310;-49
2023/04/11 00:58:55;;;;;;;5.53;4.95;;;;;;;8.62;100.00;100363.25;5012909;28;20208;-50
2023/04/11 01:01:22;;;;;;;6.00;5.38;;;;;;;8.67;100.00;100366.59;5011258;28;20199;-48
2023/04/11 01:03:48;;;;;;;6.10;5.55;;;;;;;8.54;100.00;100358.16;5008799;28;20189;-50
2023/04/11 01:06:15;;;;;;;6.15;5.35;;;;;;;8.69;100.00;100358.53;5009148;28;20642;-50
2023/04/11 01:08:42;;;;;;;5.80;5.07;;;;;;;8.65;100.00;100353.28;5014073;28;20608;-49
2023/04/11 01:11:08;;;;;;;6.00;5.50;;;;;;;8.63;100.00;100355.16;5026943;28;20552;-49
2023/04/11 01:13:35;;;;;;;5.82;5.30;;;;;;;8.65;100.00;100349.75;5009459;28;20261;-48
2023/04/11 01:16:03;;;;;;;5.63;5.13;;;;;;;8.57;100.00;100347.41;5010714;28;20299;-49
2023/04/11 01:18:28;;;;;;;5.68;4.90;;;;;;;8.58;100.00;100350.94;5011712;28;20205;-49
2023/04/11 01:20:54;;;;;;;5.85;5.32;;;;;;;8.66;100.00;100341.69;5011702;28;20246;-49
2023/04/11 01:23:24;;;;;;;6.03;5.43;;;;;;;8.63;100.00;100340.94;5009204;28;20188;-49
2023/04/11 01:25:50;;;;;;;6.53;5.43;;;;;;;8.56;100.00;100342.97;5017464;28;20181;-49
2023/04/11 01:28:19;;;;;;;6.55;5.65;;;;;;;8.54;100.00;100351.97;5011792;28;20212;-50
2023/04/11 01:30:45;;;;;;;5.78;5.15;;;;;;;8.56;100.00;100342.09;5014349;28;20238;-48
2023/04/11 01:33:12;;;;;;;6.07;5.47;;;;;;;8.55;100.00;100341.25;5013624;28;20200;-49
2023/04/11 01:35:38;;;;;;;8.07;5.28;;;;;;;8.70;100.00;100333.56;5010324;28;20225;-48
2023/04/11 01:38:04;;;;;;;5.50;5.00;;;;;;;8.58;100.00;100334.91;5011114;28;20204;-48
2023/04/11 01:40:31;;;;;;;5.88;5.30;;;;;;;8.55;100.00;100340.34;5011591;28;20271;-50
2023/04/11 01:42:58;;;;;;;6.57;5.05;;;;;;;8.48;100.00;100333.50;5011231;28;20328;-50
2023/04/11 01:45:27;;;;;;;5.88;5.25;;;;;;;8.46;100.00;100338.88;5011467;28;20196;-51
2023/04/11 01:47:54;;;;;;;6.40;5.47;;;;;;;8.51;100.00;100328.94;5006629;28;20737;-49
2023/04/11 01:50:20;;;;;;;5.35;4.63;;;;;;;8.47;100.00;100332.63;5009866;28;20215;-49
2023/04/11 01:52:47;;;;;;;5.72;5.13;;;;;;;8.39;100.00;100329.34;5010517;28;20212;-52
2023/04/11 01:55:12;;;;;;;4.82;4.32;;;;;;;8.44;100.00;100332.75;5011243;28;20219;-51
2023/04/11 01:57:38;;;;;;;5.43;4.50;;;;;;;8.51;100.00;100338.75;5008441;28;20275;-51
2023/04/11 02:00:05;;;;;;;5.15;4.30;;;;;;;8.39;100.00;100340.88;5008782;28;20181;-50
2023/04/11 02:02:40;;;;;;;5.65;5.00;;;;;;;8.41;100.00;100335.53;5008753;28;20193;-50
2023/04/11 02:05:06;;;;;;;5.18;4.38;;;;;;;8.33;100.00;100332.22;5009592;28;20188;-51
2023/04/11 02:07:32;;;;;;;5.63;3.97;;;;;;;8.29;100.00;100319.94;5008835;28;20208;-50
2023/04/11 02:09:57;;;;;;;6.18;4.80;;;;;;;8.30;100.00;100327.88;5011344;28;20331;-51
2023/04/11 02:12:23;;;;;;;4.72;4.30;;;;;;;8.25;100.00;100306.72;5009148;28;20191;-50
2023/04/11 02:14:48;;;;;;;7.53;4.05;;;;;;;8.20;100.00;100307.81;5011432;28;20223;-50
2023/04/11 02:17:17;;;;;;;4.78;3.85;;;;;;;8.14;100.00;100302.72;5009202;28;20271;-49
2023/04/11 02:19:46;;;;;;;4.45;4.03;;;;;;;8.14;100.00;100308.91;5010754;28;20603;-51
2023/04/11 02:22:14;;;;;;;5.03;3.88;;;;;;;8.10;100.00;100315.28;5008802;28;20184;-50
2023/04/11 02:24:41;;;;;;;5.65;3.97;;;;;;;8.14;100.00;100311.56;5003648;28;20638;-49
2023/04/11 02:27:07;;;;;;;4.38;3.47;;;;;;;8.04;100.00;100308.34;5010775;28;20251;-50
2023/04/11 02:29:33;;;;;;;3.78;3.20;;;;;;;8.06;100.00;100305.63;5009830;28;20212;-49
2023/04/11 02:31:58;;;;;;;4.57;3.00;;;;;;;8.07;100.00;100304.72;5008078;28;20184;-49
2023/04/11 02:34:25;;;;;;;4.70;2.83;;;;;;;8.09;100.00;100291.31;5009659;28;20184;-49
2023/04/11 02:36:51;;;;;;;4.38;2.40;;;;;;;8.10;100.00;100290.41;5009498;28;20204;-50
2023/04/11 02:39:22;;;;;;;5.22;3.00;;;;;;;8.10;100.00;100277.91;5016925;28;20203;-49
2023/04/11 02:41:49;;;;;;;4.40;2.92;;;;;;;8.14;100.00;100286.69;5010067;28;20349;-50
2023/04/11 02:44:14;;;;;;;3.22;2.92;;;;;;;8.09;100.00;100273.53;5010191;28;20189;-50
2023/04/11 02:46:41;;;;;;;5.50;3.58;;;;;;;8.12;100.00;100276.06;5010353;28;20287;-50
2023/04/11 02:49:07;;;;;;;3.70;3.30;;;;;;;8.14;100.00;100276.88;5010227;28;20695;-49
2023/04/11 02:51:33;;;;;;;4.72;3.42;;;;;;;8.26;100.00;100283.56;5012884;28;20245;-50
2023/04/11 02:53:58;;;;;;;3.90;3.20;;;;;;;8.16;100.00;100280.38;5008830;28;20199;-48
2023/04/11 02:56:25;;;;;;;5.20;3.65;;;;;;;8.15;100.00;100281.28;5010039;28;20220;-48
2023/04/11 02:58:54;;;;;;;4.50;3.60;;;;;;;8.15;100.00;100283.09;5013399;28;20204;-50
2023/04/11 03:01:23;;;;;;;4.78;3.83;;;;;;;8.14;100.00;100279.56;5008375;28;20193;-50
2023/04/11 03:03:50;;;;;;;4.95;3.83;;;;;;;8.13;100.00;100284.94;5012069;28;20189;-49
2023/04/11 03:06:17;;;;;;;3.85;3.55;;;;;;;8.17;100.00;100283.91;5013122;28;20338;-48
2023/04/11 03:08:45;;;;;;;5.28;3.63;;;;;;;8.12;100.00;100278.75;5009265;28;20315;-49
2023/04/11 03:11:11;;;;;;;5.95;3.78;;;;;;;8.19;100.00;100274.91;5011169;28;20645;-51
2023/04/11 03:13:38;;;;;;;4.15;3.75;;;;;;;8.08;100.00;100271.78;5006513;28;20267;-52
2023/04/11 03:16:05;;;;;;;4.30;3.90;;;;;;;8.11;100.00;100255.66;5008340;28;20216;-50
2023/04/11 03:18:31;;;;;;;5.15;4.05;;;;;;;8.16;100.00;100256.34;5008124;28;20208;-51
2023/04/11 03:21:00;;;;;;;4.45;4.03;;;;;;;8.10;100.00;100271.72;4991973;28;20722;-49
2023/04/11 03:23:26;;;;;;;5.47;4.35;;;;;;;8.11;100.00;100266.34;5011817;28;20197;-51
2023/04/11 03:25:52;;;;;;;4.30;3.90;;;;;;;8.11;100.00;100263.69;5009856;28;20663;-52
2023/04/11 03:28:18;;;;;;;6.50;4.43;;;;;;;8.10;100.00;100264.59;4993340;28;20217;-49
2023/04/11 03:30:45;;;;;;;4.95;3.95;;;;;;;8.12;100.00;100261.88;5009189;28;20246;-52
2023/04/11 03:33:16;;;;;;;5.97;4.30;;;;;;;8.14;100.00;100252.00;4990250;28;20192;-50
2023/04/11 03:35:41;;;;;;;6.50;4.47;;;;;;;8.05;100.00;100239.88;5009454;28;20213;-52
2023/04/11 03:38:07;;;;;;;4.10;3.70;;;;;;;8.17;100.00;100239.41;5008000;28;20226;-50
2023/04/11 03:40:33;;;;;;;5.53;4.35;;;;;;;7.98;100.00;100233.00;5011087;28;20239;-50
2023/04/11 03:43:09;;;;;;;9.38;4.90;;;;;;;7.97;100.00;100228.63;5011056;28;20188;-51
2023/04/11 03:45:35;;;;;;;5.68;4.72;;;;;;;7.94;100.00;100232.28;5008336;28;20529;-49
2023/04/11 03:48:05;;;;;;;5.90;5.30;;;;;;;7.95;100.00;100230.47;5012806;28;20244;-50
2023/04/11 03:50:44;;;;;;;9.05;5.40;;;;;;;7.96;100.00;100230.44;5011752;28;20288;-49
2023/04/11 03:53:11;;;;;;;6.35;5.75;;;;;;;8.00;100.00;100223.16;5011606;28;20621;-48
2023/04/11 03:55:40;;;;;;;8.10;5.75;;;;;;;7.98;100.00;100227.69;4995287;28;20210;-51
2023/04/11 03:58:06;;;;;;;7.97;6.18;;;;;;;7.95;100.00;100218.00;5011453;28;20816;-49
2023/04/11 04:00:32;;;;;;;8.38;5.40;;;;;;;7.99;100.00;100214.28;5011287;28;20195;-49
2023/04/11 04:03:05;;;;;;;6.53;5.82;;;;;;;8.00;100.00;100215.16;5008839;28;20558;-49
2023/04/11 04:05:31;;;;;;;9.52;6.03;;;;;;;7.98;100.00;100211.66;5012918;28;20655;-49
2023/04/11 04:07:58;;;;;;;7.63;6.00;;;;;;;8.00;100.00;100215.16;5005309;28;20198;-51
2023/04/11 04:10:36;;;;;;;6.95;6.13;;;;;;;8.07;100.00;100211.34;5011445;28;20753;-50
2023/04/11 04:13:02;;;;;;;6.30;5.28;;;;;;;8.07;100.00;100213.13;5012699;28;20271;-50
2023/04/11 04:15:34;;;;;;;6.38;4.97;;;;;;;7.95;100.00;100227.81;5012355;28;20201;-49
2023/04/11 04:18:01;;;;;;;3.92;3.53;;;;;;;7.87;100.00;100236.09;5007762;28;20230;-52
2023/04/11 04:20:40;;;;;;;2.88;2.17;;;;;;;7.71;100.00;100230.44;5011226;28;20196;-50
2023/04/11 04:23:06;;;;;;;2.85;2.17;;;;;;;7.67;100.00;100227.94;5007114;28;20185;-49
2023/04/11 04:25:52;;;;;;;4.20;2.20;;;;;;;7.59;100.00;100234.41;5008549;28;20193;-49
2023/04/11 04:28:21;;;;;;;3.50;1.58;;;;;;;7.70;100.00;100236.72;5009721;28;20291;-51
2023/04/11 04:30:49;;;;;;;2.15;1.70;;;;;;;7.64;100.00;100236.91;4993564;28;20191;-51
2023/04/11 04:33:17;;;;;;;2.72;1.52;;;;;;;7.69;100.00;100240.28;5008228;28;20267;-50
2023/04/11 04:35:46;;;;;;;2.42;2.03;;;;;;;7.64;100.00;100243.13;5006905;28;20208;-50
2023/04/11 04:38:16;;;;;;;2.03;1.80;;;;;;;7.58;100.00;100247.78;5012124;28;20254;-51
2023/04/11 04:40:48;;;;;;;3.55;2.10;;;;;;;7.52;100.00;100269.34;5003977;28;20226;-52
2023/04/11 04:43:16;;;;;;;3.83;2.17;;;;;;;7.41;100.00;100270.59;5010718;28;20602;-49
2023/04/11 04:46:02;;;;;;;3.22;1.38;;;;;;;7.19;100.00;100289.09;5011957;28;20200;-51
2023/04/11 04:48:36;;;;;;;3.92;1.52;;;;;;;7.11;100.00;100277.81;5012031;28;20201;-51
2023/04/11 04:51:03;;;;;;;3.70;1.85;;;;;;;7.04;100.00;100272.72;5016641;28;20679;-51
2023/04/11 04:53:29;;;;;;;2.50;1.33;;;;;;;6.91;100.00;100281.13;4997017;28;20690;-51
2023/04/11 04:55:57;;;;;;;4.38;1.63;;;;;;;6.95;100.00;100295.19;5010423;28;20247;-51
2023/04/11 04:58:26;;;;;;;2.55;1.70;;;;;;;6.98;100.00;100285.31;5013765;28;20204;-50
2023/04/11 05:00:56;;;;;;;2.50;1.35;;;;;;;6.89;100.00;100290.97;5014997;28;20185;-50
2023/04/11 05:03:24;;;;;;;1.45;1.35;;;;;;;6.91;100.00;100301.53;5005593;28;20206;-50
2023/04/11 05:05:50;;;;;;;2.50;1.25;;;;;;;6.84;100.00;100300.00;5016209;28;20257;-45
2023/04/11 05:08:19;;;;;;;2.42;1.20;;;;;;;6.75;100.00;100296.69;4993228;28;20196;-47
2023/04/11 05:10:45;;;;;;;2.80;1.05;;;;;;;6.66;100.00;100286.34;5016626;28;20192;-46
2023/04/11 05:13:11;;;;;;;1.40;1.15;;;;;;;6.70;100.00;100287.13;5010020;28;20192;-46
2023/04/11 05:15:37;;;;;;;1.40;0.82;;;;;;;6.77;100.00;100296.66;5010641;28;20217;-46
2023/04/11 05:18:03;;;;;;;3.13;1.10;;;;;;;6.69;100.00;100296.00;5011492;28;20295;-47
2023/04/11 05:20:32;;;;;;;3.45;0.93;;;;;;;6.64;100.00;100296.16;5019102;28;20199;-48
2023/04/11 05:22:58;;;;;;;1.35;0.90;;;;;;;6.55;100.00;100310.63;5013696;28;20184;-46
2023/04/11 05:25:24;;;;;;;3.10;1.10;;;;;;;6.63;100.00;100307.75;5000754;28;20221;-47
2023/04/11 05:27:50;;;;;;;4.22;1.13;;;;;;;6.74;100.00;100304.75;5010039;28;20281;-46
2023/04/11 05:30:20;;;;;;;2.70;1.10;;;;;;;6.66;100.00;100309.44;5014072;28;20195;-46
2023/04/11 05:32:47;;;;;;;1.60;0.93;;;;;;;6.74;100.00;100313.59;5010092;28;20177;-46
2023/04/11 05:35:13;;;;;;;2.47;0.90;;;;;;;6.64;100.00;100308.59;5013187;28;20227;-48
2023/04/11 05:37:49;;;;;;;3.17;1.15;;;;;;;6.57;100.00;100306.13;5012980;28;20212;-47
2023/04/11 05:40:15;;;;;;;2.47;0.80;;;;;;;6.70;100.00;100311.09;5008609;28;20280;-48
2023/04/11 05:42:41;;;;;;;2.28;1.42;;;;;;;6.53;100.00;100308.94;5011651;28;20300;-48
2023/04/11 05:45:07;;;;;;;2.95;1.10;;;;;;;6.50;100.00;100306.38;5024677;28;20223;-47
2023/04/11 05:47:32;;;;;;;2.15;1.00;;;;;;;6.48;100.00;100298.41;5014818;28;20228;-47
2023/04/11 05:49:58;;;;;;;4.15;1.10;;;;;;;6.62;100.00;100310.44;5011133;28;20215;-48
2023/04/11 05:52:24;;;;;;;3.40;1.40;;;;;;;6.68;100.00;100294.28;5014640;28;20188;-46
2023/04/11 05:54:49;;;;;;;3.58;1.67;;;;;;;6.89;100.00;100293.63;5008166;28;20344;-46
2023/04/11 05:57:16;;;;;;;3.65;1.80;;;;;;;6.79;100.00;100297.47;5010505;28;20308;-48
2023/04/11 05:59:41;;;;;;;3.88;1.70;;;;;;;6.84;100.00;100303.53;5007782;28;20271;-47
2023/04/11 06:02:07;;;;;;;4.03;1.85;;;;;;;6.75;100.00;100307.34;5010807;28;20287;-47
2023/04/11 06:04:33;;;;;;;3.28;2.05;;;;;;;6.98;100.00;100311.97;5010066;28;20940;-47
2023/04/11 06:07:03;;;;;;;4.40;2.20;;;;;;;6.81;100.00;100315.16;5010773;28;20185;-47
2023/04/11 06:09:30;;;;;;;4.85;2.40;;;;;;;6.76;100.00;100326.88;5010096;28;20204;-47
2023/04/11 06:11:56;;;;;;;6.32;2.15;;;;;;;6.76;100.00;100325.06;5010098;28;20188;-48
2023/04/11 06:14:21;;;;;;;4.30;2.20;;;;;;;6.79;100.00;100330.28;5009775;28;20521;-46
2023/04/11 06:16:47;;;;;;;3.22;1.85;;;;;;;6.78;100.00;100322.38;5009532;28;20734;-46
2023/04/11 06:19:13;;;;;;;5.05;2.13;;;;;;;6.68;100.00;100321.78;5008070;28;20208;-47
2023/04/11 06:21:38;;;;;;;1.92;1.70;;;;;;;6.65;100.00;100323.63;5010474;28;20220;-46
2023/04/11 06:24:08;;;;;;;7.53;2.22;;;;;;;6.63;100.00;100338.81;5010796;28;20196;-47
2023/04/11 06:26:33;;;;;;;7.03;2.70;;;;;;;6.56;100.00;100328.34;5010931;28;20188;-49
2023/04/11 06:28:59;;;;;;;5.22;2.83;;;;;;;6.64;100.00;100328.09;5006848;28;20236;-49
2023/04/11 06:31:25;;;;;;;3.30;2.35;;;;;;;6.62;100.00;100339.72;5009720;28;20617;-49
2023/04/11 06:33:50;;;;;;;3.80;2.85;;;;;;;6.50;100.00;100327.66;5009956;28;20199;-47
2023/04/11 06:36:15;;;;;;;3.20;2.90;;;;;;;6.57;100.00;100338.06;5009998;28;20642;-47
2023/04/11 06:38:42;;;;;;;6.90;5.38;;;;;;;6.55;100.00;100342.56;5009502;28;20738;-46
2023/04/11 06:41:07;;;;;;;4.30;3.10;;;;;;;6.75;100.00;100341.09;5010326;28;20189;-46
2023/04/11 06:43:33;;;;;;;3.50;3.20;;;;;;;6.80;100.00;100336.50;5009847;28;20263;-47
2023/04/11 06:45:59;;;;;;;3.70;3.30;;;;;;;6.78;100.00;100331.22;5009404;28;20180;-47
2023/04/11 06:48:24;;;;;;;6.15;3.30;;;;;;;6.84;100.00;100337.28;5009469;28;20204;-48
2023/04/11 06:50:50;;;;;;;8.25;3.42;;;;;;;6.81;100.00;100330.25;5010121;28;20224;-44
2023/04/11 06:53:15;;;;;;;4.85;3.45;;;;;;;6.75;100.00;100333.09;5009822;28;20271;-48
2023/04/11 06:55:41;;;;;;;6.05;3.15;;;;;;;6.67;100.00;100337.78;5009273;28;20247;-46
2023/04/11 06:58:06;;;;;;;3.83;2.78;;;;;;;6.63;100.00;100339.69;5007422;28;20200;-45
2023/04/11 07:00:32;;;;;;;1.92;1.67;;;;;;;6.60;100.00;100334.44;5008453;28;20231;-48
2023/04/11 07:02:58;;;;;;;2.50;2.30;;;;;;;6.56;100.00;100339.00;5008546;28;20256;-49
2023/04/11 07:05:25;;;;;;;5.32;3.08;;;;;;;6.45;100.00;100334.88;5008519;28;20184;-45
2023/04/11 07:07:50;;;;;;;7.90;5.30;;;;;;;6.49;100.00;100340.06;5009369;28;20213;-47
2023/04/11 07:10:16;;;;;;;8.52;7.50;;;;;;;6.62;100.00;100343.25;5007943;28;20270;-48
2023/04/11 07:12:41;;;;;;;11.30;9.23;;;;;;;6.58;100.00;100355.78;5009426;28;20655;-44
2023/04/11 07:15:07;;;;;;;16.15;14.32;;;;;;;6.59;100.00;100357.53;5009337;28;20279;-46
2023/04/11 07:17:33;;;;;;;15.00;13.70;;;;;;;6.55;100.00;100368.31;5009949;28;20212;-47
2023/04/11 07:19:58;;;;;;;14.02;12.82;;;;;;;6.60;100.00;100359.28;5008682;28;20658;-47
2023/04/11 07:22:24;;;;;;;10.63;9.27;;;;;;;6.60;100.00;100366.38;5008813;28;20184;-45
2023/04/11 07:24:54;;;;;;;9.50;8.60;;;;;;;6.58;100.00;100366.44;5009948;28;20197;-45
2023/04/11 07:27:22;;;;;;;6.93;6.22;;;;;;;6.76;100.00;100369.47;5005023;28;20220;-44
2023/04/11 07:29:47;;;;;;;5.90;4.45;;;;;;;6.66;100.00;100368.00;5007767;28;20557;-45
2023/04/11 07:32:13;;;;;;;6.60;5.30;;;;;;;6.63;100.00;100374.28;5007230;28;20176;-47
2023/04/11 07:34:38;;;;;;;6.63;5.32;;;;;;;6.79;100.00;100369.38;5009179;28;20236;-46
2023/04/11 07:37:04;;;;;;;6.90;4.53;;;;;;;6.79;100.00;100372.03;5007351;28;20193;-46
2023/04/11 07:39:29;;;;;;;5.07;3.65;;;;;;;6.92;100.00;100368.06;5009622;28;20237;-47
2023/04/11 07:41:55;;;;;;;6.63;4.00;;;;;;;7.03;100.00;100374.88;5008550;28;20196;-46
2023/04/11 07:44:21;;;;;;;5.22;4.72;;;;;;;7.08;100.00;100367.59;5009314;28;20659;-48
2023/04/11 07:46:46;;;;;;;7.50;4.82;;;;;;;7.31;100.00;100364.22;5008609;28;20184;-47
2023/04/11 07:49:12;;;;;;;7.18;4.55;;;;;;;7.31;100.00;100370.41;5008908;28;20258;-46
2023/04/11 07:51:38;;;;;;;4.80;4.22;;;;;;;7.35;100.00;100377.41;5009167;28;20288;-45
2023/04/11 07:54:03;;;;;;;5.93;4.63;;;;;;;7.43;100.00;100382.47;5021243;28;20536;-48
2023/04/11 07:56:29;;;;;;;6.43;4.15;;;;;;;7.41;100.00;100381.63;5004825;28;20215;-46
2023/04/11 07:58:55;;;;;;;3.70;3.40;;;;;;;7.54;100.00;100392.78;5007882;28;20310;-46
2023/04/11 08:01:25;;;;;;;4.28;3.55;;;;;;;7.63;100.00;100382.69;5008935;28;20180;-44
2023/04/11 08:03:54;;;;;;;4.25;2.95;;;;;;;7.54;100.00;100371.44;5006665;28;20189;-47
2023/04/11 08:06:20;;;;;;;5.82;3.72;;;;;;;7.55;100.00;100376.75;5006955;28;20220;-44
2023/04/11 08:08:47;;;;;;;4.00;3.03;;;;;;;7.52;100.00;100381.28;5007227;28;20231;-45
2023/04/11 08:11:13;;;;;;;4.18;3.22;;;;;;;7.57;100.00;100379.38;5009691;28;20393;-45
2023/04/11 08:13:39;;;;;;;3.25;2.60;;;;;;;7.66;100.00;100392.38;5004923;28;20192;-44
2023/04/11 08:16:07;;;;;;;6.40;2.90;;;;;;;7.73;100.00;100385.91;5008278;28;20632;-48
2023/04/11 08:18:34;;;;;;;2.95;2.38;;;;;;;7.76;100.00;100398.25;5003093;28;20584;-47
2023/04/11 08:21:00;;;;;;;5.20;2.53;;;;;;;7.55;100.00;100395.41;5009718;28;20185;-53
2023/04/11 08:23:25;;;;;;;5.18;2.03;;;;;;;7.59;100.00;100402.38;5013084;28;20727;-49
2023/04/11 08:25:51;;;;;;;3.67;2.70;;;;;;;7.66;100.00;100394.19;5012623;28;20180;-44
2023/04/11 08:28:17;;;;;;;3.55;2.17;;;;;;;7.87;100.00;100395.22;5011151;28;20217;-45
2023/04/11 08:30:43;;;;;;;3.63;2.28;;;;;;;7.96;100.00;100406.47;5011931;28;20187;-49
2023/04/11 08:33:09;;;;;;;4.63;2.17;;;;;;;7.83;100.00;100387.34;5013052;28;20181;-49
2023/04/11 08:35:34;;;;;;;4.30;2.28;;;;;;;8.00;100.00;100396.56;5012937;28;20251;-47
2023/04/11 08:38:00;;;;;;;2.83;2.17;;;;;;;8.14;100.00;100396.97;5012876;28;20223;-47
2023/04/11 08:40:27;;;;;;;4.05;2.60;;;;;;;8.13;100.00;100403.22;5012910;28;20195;-44
2023/04/11 08:42:59;;;;;;;6.78;3.20;;;;;;;8.11;100.00;100383.75;5013025;28;20643;-46
2023/04/11 08:45:24;;;;;;;6.88;3.22;;;;;;;8.13;100.00;100392.53;5011838;28;20705;-45
2023/04/11 08:47:50;;;;;;;7.75;4.03;;;;;;;8.03;100.00;100402.66;5012880;28;20314;-45
2023/04/11 08:50:16;;;;;;;4.65;3.75;;;;;;;7.92;100.00;100402.19;5010634;28;20287;-46
2023/04/11 08:52:43;;;;;;;8.00;4.35;;;;;;;8.08;100.00;100399.84;5011668;28;20184;-44
2023/04/11 08:55:09;;;;;;;6.90;4.28;;;;;;;8.17;100.00;100388.84;5012216;28;20517;-48
2023/04/11 08:57:37;;;;;;;4.78;3.58;;;;;;;8.16;100.00;100402.25;5012382;28;20216;-45
2023/04/11 09:00:17;;;;;;;5.80;3.50;;;;;;;8.29;100.00;100413.34;5011943;28;20528;-45
2023/04/11 09:02:58;;;;;;;5.90;3.10;;;;;;;8.17;100.00;100403.97;5011142;28;20212;-50
2023/04/11 09:05:45;;;;;;;5.40;2.88;;;;;;;8.09;100.00;100417.59;5006482;28;20188;-45
2023/04/11 09:08:12;;;;;;;6.75;2.80;;;;;;;8.19;100.00;100413.66;5011677;28;20227;-44
2023/04/11 09:10:39;;;;;;;3.30;2.30;;;;;;;8.42;100.00;100418.25;5012502;28;20278;-45
2023/04/11 09:13:24;;;;;;;2.67;2.08;;;;;;;8.39;100.00;100422.78;5012491;28;20212;-44
2023/04/11 09:16:11;;;;;;;3.47;2.03;;;;;;;8.32;100.00;100423.94;5012231;28;20219;-43
2023/04/11 09:18:45;;;;;;;2.95;1.70;;;;;;;8.30;100.00;100421.31;5007012;28;20212;-44
2023/04/11 09:21:14;;;;;;;1.40;1.30;;;;;;;8.20;100.00;100433.25;5011143;28;20200;-43
2023/04/11 09:23:40;;;;;;;1.77;1.42;;;;;;;8.20;100.00;100433.25;5011581;28;20227;-48
2023/04/11 09:26:10;;;;;;;2.78;1.60;;;;;;;8.36;100.00;100425.56;5012350;28;20215;-45
2023/04/11 09:28:43;;;;;;;3.97;1.55;;;;;;;8.33;100.00;100421.22;5009895;28;20221;-44
2023/04/11 09:31:11;;;;;;;1.83;1.20;;;;;;;8.48;100.00;100425.13;5011788;28;20181;-45
2023/04/11 09:33:37;;;;;;;4.38;1.25;;;;;;;8.62;100.00;100417.50;5010959;28;20204;-43
2023/04/11 09:36:18;;;;;;;1.98;1.08;;;;;;;8.69;100.00;100427.97;5012269;28;20197;-44
2023/04/11 09:38:44;;;;;;;0.90;0.90;;;;;;;8.86;100.00;100429.09;5011496;28;20717;-45
2023/04/11 09:41:10;;;;;;;1.17;1.00;;;;;;;8.85;100.00;100426.47;5012160;28;20287;-45
2023/04/11 09:43:52;;;;;;;2.10;1.35;;;;;;;8.60;100.00;100427.38;5011313;28;20177;-45
2023/04/11 09:46:19;;;;;;;1.25;1.15;;;;;;;8.27;100.00;100432.09;5010825;28;20567;-43
2023/04/11 09:48:46;;;;;;;1.75;1.20;;;;;;;8.01;100.00;100439.19;5009281;28;20611;-48
2023/04/11 09:51:12;;;;;;;2.45;1.23;;;;;;;8.04;100.00;100451.56;5011037;28;20754;-46
2023/04/11 09:53:38;;;;;;;3.05;1.48;;;;;;;7.88;100.00;100448.53;5011451;28;20191;-43
2023/04/11 09:56:05;;;;;;;2.83;1.10;;;;;;;8.02;100.00;100453.41;5010992;28;20201;-47
2023/04/11 09:58:32;;;;;;;1.65;1.05;;;;;;;8.10;100.00;100459.34;5008384;28;20208;-45
2023/04/11 10:01:01;;;;;;;1.60;1.08;;;;;;;7.97;100.00;100455.38;5011323;28;20200;-46
2023/04/11 10:03:27;;;;;;;2.63;0.80;;;;;;;8.15;100.00;100453.88;5008041;28;20561;-45
2023/04/11 10:05:54;;;;;;;2.60;1.20;;;;;;;8.07;100.00;100455.91;5008554;28;20169;-44
2023/04/11 10:08:29;;;;;;;1.38;1.20;;;;;;;8.14;100.00;100460.13;5011192;28;20718;-47
2023/04/11 10:10:56;;;;;;;1.65;1.30;;;;;;;8.18;100.00;100459.13;5009653;28;20238;-44
2023/04/11 10:13:34;;;;;;;1.33;0.98;;;;;;;8.17;100.00;100473.38;5011306;28;20551;-47
2023/04/11 10:16:08;;;;;;;4.20;1.48;;;;;;;8.42;100.00;100457.41;5011078;28;20208;-49
2023/04/11 10:18:35;;;;;;;2.80;1.42;;;;;;;8.46;100.00;100461.69;5011262;28;20216;-42
2023/04/11 10:21:00;;;;;;;1.73;1.20;;;;;;;8.58;100.00;100458.59;5011284;28;20191;-47
2023/04/11 10:23:26;;;;;;;2.17;1.23;;;;;;;8.51;100.00;100451.75;5008362;28;20181;-47
2023/04/11 10:25:59;;;;;;;2.83;1.27;;;;;;;8.60;100.00;100467.44;5011435;28;20279;-45
2023/04/11 10:28:44;;;;;;;1.52;1.05;;;;;;;8.60;100.00;100455.88;5010387;28;20729;-48
2023/04/11 10:31:16;;;;;;;1.98;1.15;;;;;;;8.52;100.00;100464.16;5011014;28;20399;-46
2023/04/11 10:34:12;;;;;;;0.90;0.90;;;;;;;8.54;100.00;100462.31;5010403;28;20191;-48
2023/04/11 10:37:06;;;;;;;3.45;1.10;;;;;;;8.82;100.00;100455.97;5009720;28;20192;-45
2023/04/11 10:39:46;;;;;;;0.60;0.60;;;;;;;8.61;100.00;100462.94;5008070;28;20208;-44
2023/04/11 10:42:30;;;;;;;0.82;0.70;;;;;;;8.55;100.00;100463.16;5011032;28;20177;-43
2023/04/11 10:45:21;;;;;;;2.75;0.98;;;;;;;8.58;100.00;100474.63;5011410;28;20188;-47
2023/04/11 10:48:10;;;;;;;2.65;1.10;;;;;;;8.60;100.00;100456.75;5010886;28;20196;-44
2023/04/11 10:50:43;;;;;;;1.33;0.90;;;;;;;8.74;100.00;100468.72;5011294;28;20188;-44
2023/04/11 10:53:35;;;;;;;2.13;1.20;;;;;;;8.67;100.00;100457.41;5009822;28;20181;-50
2023/04/11 10:56:01;;;;;;;3.22;1.38;;;;;;;8.69;100.00;100471.56;5009181;28;20702;-47
2023/04/11 10:58:38;;;;;;;4.18;1.58;;;;;;;8.98;100.00;100467.81;5010346;28;20197;-44
2023/04/11 11:01:14;;;;;;;2.10;1.50;;;;;;;8.75;100.00;100466.00;5009250;28;20193;-46
2023/04/11 11:03:50;;;;;;;3.60;1.80;;;;;;;8.81;100.00;100475.59;5010732;28;20254;-46
2023/04/11 11:06:16;;;;;;;3.38;2.15;;;;;;;9.01;100.00;100472.19;5011005;28;20627;-44
2023/04/11 11:08:42;;;;;;;2.85;2.20;;;;;;;9.11;100.00;100475.38;5010343;28;20209;-45
2023/04/11 11:11:10;;;;;;;5.10;2.10;;;;;;;8.92;100.00;100477.84;5010835;28;20255;-48
2023/04/11 11:13:44;;;;;;;3.10;2.00;;;;;;;9.00;100.00;100482.00;5010112;28;20189;-41
2023/04/11 11:16:14;;;;;;;2.53;1.90;;;;;;;9.15;100.00;100479.69;5010573;28;20205;-43
2023/04/11 11:18:43;;;;;;;3.38;1.77;;;;;;;8.83;100.00;100484.41;5010087;28;20204;-47
2023/04/11 11:21:09;;;;;;;2.22;1.75;;;;;;;8.49;100.00;100493.66;5014261;28;20195;-45
2023/04/11 11:23:35;;;;;;;3.50;1.70;;;;;;;8.50;100.00;100507.84;5009958;28;20643;-45
2023/04/11 11:26:00;;;;;;;3.67;1.60;;;;;;;8.29;100.00;100515.66;5009997;28;20229;-46
2023/04/11 11:28:26;;;;;;;2.38;1.75;;;;;;;8.03;100.00;100524.53;5009671;28;20209;-45